createdAt,value
2016-11-04T00:00:19.130Z,99.99
2016-11-04T00:01:19.151Z,99.99
2016-11-04T00:02:19.159Z,99.99
2016-11-04T00:03:19.180Z,99.99
2016-11-04T00:04:19.201Z,99.99
2016-11-04T00:05:19.207Z,99.99
2016-11-04T00:06:19.230Z,99.99
2016-11-04T00:07:19.236Z,99.99
2016-11-04T00:08:19.252Z,99.99
2016-11-04T00:09:19.274Z,99.99
2016-11-04T00:10:19.287Z,99.99
2016-11-04T00:11:19.299Z,99.99
2016-11-04T00:12:19.313Z,99.99
2016-11-04T00:13:19.334Z,99.99
2016-11-04T00:14:19.358Z,99.99
2016-11-04T00:15:19.356Z,99.99
2016-11-04T00:16:19.412Z,99.99
2016-11-04T00:17:19.385Z,99.99
2016-11-04T00:18:19.402Z,99.99
2016-11-04T00:19:19.416Z,99.99
2016-11-04T00:20:19.448Z,99.99
2016-11-04T00:21:19.449Z,99.99
2016-11-04T00:22:19.458Z,99.99
2016-11-04T00:23:19.479Z,99.99
2016-11-04T00:24:19.510Z,99.99
2016-11-04T00:25:19.502Z,99.99
2016-11-04T00:26:19.600Z,99.99
2016-11-04T00:27:19.547Z,99.99
2016-11-04T00:28:19.599Z,99.99
2016-11-04T00:29:19.593Z,99.99
2016-11-04T00:30:19.620Z,99.99
2016-11-04T00:31:19.592Z,99.87
2016-11-04T00:32:19.608Z,99.77
2016-11-04T00:33:19.625Z,99.77
2016-11-04T00:34:19.649Z,99.77
2016-11-04T00:35:19.660Z,99.77
2016-11-04T00:36:19.684Z,99.77
2016-11-04T00:37:19.686Z,99.68
2016-11-04T00:38:19.708Z,99.68
2016-11-04T00:39:19.720Z,99.58
2016-11-04T00:40:19.743Z,99.58
2016-11-04T00:41:19.746Z,99.49
2016-11-04T00:42:19.768Z,99.49
2016-11-04T00:43:19.773Z,99.49
2016-11-04T00:44:19.789Z,99.58
2016-11-04T00:45:19.905Z,99.58
2016-11-04T00:46:19.830Z,99.68
2016-11-04T00:47:19.832Z,99.68
2016-11-04T00:48:19.856Z,99.77
2016-11-04T00:49:19.861Z,99.77
2016-11-04T00:50:19.887Z,99.77
2016-11-04T00:51:19.895Z,99.77
2016-11-04T00:52:19.910Z,99.77
2016-11-04T00:53:19.923Z,99.77
2016-11-04T00:54:19.943Z,99.87
2016-11-04T00:55:19.954Z,99.97
2016-11-04T00:56:19.963Z,99.97
2016-11-04T00:57:19.980Z,99.99
2016-11-04T00:58:20.003Z,99.99
2016-11-04T00:59:20.009Z,99.99
2016-11-04T01:00:20.039Z,99.99
2016-11-04T01:01:20.036Z,99.99
2016-11-04T01:02:20.059Z,99.99
2016-11-04T01:03:20.063Z,99.99
2016-11-04T01:04:20.083Z,99.99
2016-11-04T01:05:20.100Z,99.99
2016-11-04T01:06:20.120Z,99.99
2016-11-04T01:07:20.129Z,99.99
2016-11-04T01:08:20.142Z,99.99
2016-11-04T01:09:20.160Z,99.99
2016-11-04T01:10:20.173Z,99.99
2016-11-04T01:11:20.192Z,99.99
2016-11-04T01:12:20.217Z,99.99
2016-11-04T01:13:20.211Z,99.99
2016-11-04T01:14:20.245Z,99.99
2016-11-04T01:15:20.250Z,99.99
2016-11-04T01:16:20.256Z,99.99
2016-11-04T01:17:20.277Z,99.99
2016-11-04T01:18:20.293Z,99.99
2016-11-04T01:19:20.309Z,99.99
2016-11-04T01:20:20.320Z,99.99
2016-11-04T01:21:20.335Z,99.99
2016-11-04T01:22:20.353Z,99.99
2016-11-04T01:23:20.361Z,99.99
2016-11-04T01:24:20.391Z,99.99
2016-11-04T01:25:20.426Z,99.99
2016-11-04T01:26:20.413Z,99.99
2016-11-04T01:27:20.418Z,99.99
2016-11-04T01:28:20.442Z,99.99
2016-11-04T01:29:20.455Z,99.99
2016-11-04T01:30:20.467Z,99.99
2016-11-04T01:31:20.482Z,99.99
2016-11-04T01:32:20.501Z,99.99
2016-11-04T01:33:20.519Z,99.99
2016-11-04T01:34:20.521Z,99.99
2016-11-04T01:35:20.541Z,99.99
2016-11-04T01:36:20.558Z,99.99
2016-11-04T01:37:20.566Z,99.99
2016-11-04T01:38:20.585Z,99.99
2016-11-04T01:39:20.597Z,99.99
2016-11-04T01:40:20.613Z,99.99
2016-11-04T01:41:20.654Z,99.99
2016-11-04T01:42:20.643Z,99.99
2016-11-04T01:43:20.656Z,99.99
2016-11-04T01:44:20.681Z,99.99
2016-11-04T01:45:20.683Z,99.99
2016-11-04T01:46:20.702Z,99.99
2016-11-04T01:47:20.714Z,99.99
2016-11-04T01:48:20.732Z,99.99
2016-11-04T01:49:20.738Z,99.99
2016-11-04T01:50:20.760Z,99.99
2016-11-04T01:51:20.778Z,99.99
2016-11-04T01:52:20.796Z,99.99
2016-11-04T01:53:20.803Z,99.99
2016-11-04T01:54:20.814Z,99.99
2016-11-04T01:55:20.919Z,99.99
2016-11-04T01:56:21.167Z,99.99
2016-11-04T01:57:20.862Z,99.99
2016-11-04T01:58:20.884Z,99.99
2016-11-04T01:59:20.891Z,99.99
2016-11-04T02:00:20.916Z,99.99
2016-11-04T02:01:20.917Z,99.99
2016-11-04T02:02:20.941Z,99.99
2016-11-04T02:03:20.947Z,99.99
2016-11-04T02:04:20.967Z,99.99
2016-11-04T02:05:20.977Z,99.99
2016-11-04T02:06:21.000Z,99.99
2016-11-04T02:07:21.004Z,99.99
2016-11-04T02:08:21.035Z,99.99
2016-11-04T02:09:21.031Z,99.99
2016-11-04T02:10:21.043Z,99.99
2016-11-04T02:11:21.064Z,99.99
2016-11-04T02:12:21.394Z,99.99
2016-11-04T02:13:21.086Z,99.99
2016-11-04T02:14:21.119Z,99.99
2016-11-04T02:15:21.116Z,99.99
2016-11-04T02:16:21.148Z,99.99
2016-11-04T02:17:21.151Z,99.99
2016-11-04T02:18:21.173Z,99.99
2016-11-04T02:19:21.175Z,99.99
2016-11-04T02:20:21.192Z,99.99
2016-11-04T02:21:21.201Z,99.99
2016-11-04T02:22:21.232Z,99.99
2016-11-04T02:23:21.242Z,99.99
2016-11-04T02:24:21.574Z,99.99
2016-11-04T02:25:21.264Z,99.99
2016-11-04T02:26:21.296Z,99.99
2016-11-04T02:27:21.291Z,99.91
2016-11-04T02:28:21.318Z,99.91
2016-11-04T02:29:21.324Z,99.91
2016-11-04T02:30:21.344Z,99.91
2016-11-04T02:31:21.361Z,99.91
2016-11-04T02:32:21.372Z,99.82
2016-11-04T02:33:21.377Z,99.73
2016-11-04T02:34:21.407Z,99.77
2016-11-04T02:35:21.410Z,99.73
2016-11-04T02:36:21.431Z,99.63
2016-11-04T02:37:21.435Z,99.68
2016-11-04T02:38:21.449Z,99.68
2016-11-04T02:39:21.473Z,99.68
2016-11-04T02:40:21.490Z,99.49
2016-11-04T02:41:21.500Z,99.3
2016-11-04T02:42:21.507Z,99.21
2016-11-04T02:43:21.529Z,99.21
2016-11-04T02:44:21.545Z,99.11
2016-11-04T02:45:21.554Z,99.02
2016-11-04T02:46:21.580Z,99.11
2016-11-04T02:47:21.581Z,99.11
2016-11-04T02:48:21.604Z,99.11
2016-11-04T02:49:21.701Z,98.92
2016-11-04T02:50:21.642Z,98.92
2016-11-04T02:51:21.641Z,98.92
2016-11-04T02:52:21.656Z,98.83
2016-11-04T02:53:21.666Z,98.73
2016-11-04T02:54:21.698Z,98.64
2016-11-04T02:55:21.698Z,98.64
2016-11-04T02:56:21.726Z,98.64
2016-11-04T02:57:21.725Z,98.73
2016-11-04T02:58:21.750Z,98.92
2016-11-04T02:59:21.763Z,99.02
2016-11-04T03:00:21.773Z,99.02
2016-11-04T03:01:21.790Z,99.02
2016-11-04T03:02:21.801Z,98.92
2016-11-04T03:03:21.816Z,98.83
2016-11-04T03:04:21.840Z,98.83
2016-11-04T03:05:21.850Z,98.83
2016-11-04T03:06:21.870Z,98.83
2016-11-04T03:07:21.871Z,98.83
2016-11-04T03:08:21.901Z,98.92
2016-11-04T03:09:21.911Z,98.92
2016-11-04T03:10:21.928Z,99.02
2016-11-04T03:11:21.934Z,99.11
2016-11-04T03:12:21.963Z,99.11
2016-11-04T03:13:21.968Z,99.21
2016-11-04T03:14:21.974Z,99.3
2016-11-04T03:15:21.993Z,99.21
2016-11-04T03:16:22.011Z,99.11
2016-11-04T03:17:22.027Z,99.11
2016-11-04T03:18:22.040Z,99.02
2016-11-04T03:19:22.055Z,98.92
2016-11-04T03:20:22.070Z,98.83
2016-11-04T03:21:22.087Z,98.83
2016-11-04T03:22:22.106Z,98.64
2016-11-04T03:23:22.117Z,98.54
2016-11-04T03:24:22.138Z,98.54
2016-11-04T03:25:22.136Z,98.64
2016-11-04T03:26:22.476Z,98.73
2016-11-04T03:27:22.202Z,98.73
2016-11-04T03:28:22.541Z,98.83
2016-11-04T03:29:22.202Z,98.92
2016-11-04T03:30:22.221Z,98.92
2016-11-04T03:31:22.232Z,98.92
2016-11-04T03:32:22.566Z,98.83
2016-11-04T03:33:22.261Z,98.83
2016-11-04T03:34:22.274Z,98.64
2016-11-04T03:35:22.286Z,98.54
2016-11-04T03:36:22.646Z,98.54
2016-11-04T03:37:22.320Z,98.54
2016-11-04T03:38:22.344Z,98.64
2016-11-04T03:39:22.345Z,98.54
2016-11-04T03:40:22.399Z,98.64
2016-11-04T03:41:22.372Z,98.64
2016-11-04T03:42:22.389Z,98.64
2016-11-04T03:43:22.412Z,98.64
2016-11-04T03:44:22.419Z,98.64
2016-11-04T03:45:22.436Z,98.64
2016-11-04T03:46:22.459Z,98.64
2016-11-04T03:47:22.464Z,98.73
2016-11-04T03:48:22.478Z,98.83
2016-11-04T03:49:22.494Z,98.83
2016-11-04T03:50:22.504Z,98.73
2016-11-04T03:51:22.517Z,98.64
2016-11-04T03:52:22.541Z,98.73
2016-11-04T03:53:22.549Z,98.83
2016-11-04T03:54:22.580Z,98.83
2016-11-04T03:55:22.576Z,98.83
2016-11-04T03:56:22.599Z,98.92
2016-11-04T03:57:22.603Z,98.83
2016-11-04T03:58:22.631Z,98.73
2016-11-04T03:59:22.647Z,98.73
2016-11-04T04:01:22.717Z,98.83
2016-11-04T04:02:22.678Z,98.73
2016-11-04T04:03:22.699Z,98.64
2016-11-04T04:04:22.709Z,98.64
2016-11-04T04:05:22.733Z,98.64
2016-11-04T04:06:22.745Z,98.64
2016-11-04T04:07:22.757Z,98.73
2016-11-04T04:08:22.769Z,98.83
2016-11-04T04:09:22.788Z,98.83
2016-11-04T04:10:22.798Z,98.83
2016-11-04T04:11:22.815Z,98.83
2016-11-04T04:12:22.829Z,98.83
2016-11-04T04:13:22.895Z,98.73
2016-11-04T04:14:22.855Z,98.64
2016-11-04T04:15:22.873Z,98.64
2016-11-04T04:16:22.888Z,98.64
2016-11-04T04:17:22.899Z,98.64
2016-11-04T04:18:22.918Z,98.64
2016-11-04T04:19:22.927Z,98.54
2016-11-04T04:20:22.950Z,98.64
2016-11-04T04:21:22.959Z,98.64
2016-11-04T04:22:22.976Z,98.64
2016-11-04T04:23:22.987Z,98.64
2016-11-04T04:24:23.002Z,98.64
2016-11-04T04:25:23.019Z,98.64
2016-11-04T04:26:23.036Z,98.64
2016-11-04T04:27:23.054Z,98.64
2016-11-04T04:28:23.060Z,98.54
2016-11-04T04:29:23.079Z,98.64
2016-11-04T04:30:23.100Z,98.64
2016-11-04T04:31:23.105Z,98.73
2016-11-04T04:32:23.130Z,98.64
2016-11-04T04:33:23.143Z,98.64
2016-11-04T04:34:23.151Z,98.64
2016-11-04T04:35:23.169Z,98.64
2016-11-04T04:36:23.179Z,98.73
2016-11-04T04:37:23.200Z,98.73
2016-11-04T04:38:23.208Z,98.73
2016-11-04T04:39:23.223Z,98.73
2016-11-04T04:40:23.242Z,98.73
2016-11-04T04:41:23.262Z,98.64
2016-11-04T04:42:23.268Z,98.64
2016-11-04T04:43:23.287Z,98.64
2016-11-04T04:44:23.307Z,98.73
2016-11-04T04:45:23.311Z,98.73
2016-11-04T04:46:23.332Z,98.83
2016-11-04T04:47:23.344Z,98.83
2016-11-04T04:48:23.366Z,98.92
2016-11-04T04:49:23.371Z,98.92
2016-11-04T04:50:23.384Z,99.02
2016-11-04T04:51:23.404Z,99.11
2016-11-04T04:52:23.421Z,99.21
2016-11-04T04:53:23.439Z,99.11
2016-11-04T04:54:23.456Z,99.11
2016-11-04T04:55:23.467Z,99.11
2016-11-04T04:56:23.483Z,99.11
2016-11-04T04:57:23.490Z,99.02
2016-11-04T04:58:23.511Z,99.02
2016-11-04T04:59:23.529Z,99.02
2016-11-04T05:00:23.539Z,99.02
2016-11-04T05:01:23.558Z,99.02
2016-11-04T05:02:23.571Z,98.92
2016-11-04T05:03:23.578Z,98.83
2016-11-04T05:04:23.595Z,98.73
2016-11-04T05:05:23.608Z,98.64
2016-11-04T05:06:23.624Z,98.64
2016-11-04T05:07:23.648Z,98.64
2016-11-04T05:08:23.652Z,98.64
2016-11-04T05:09:23.670Z,98.64
2016-11-04T05:10:23.685Z,98.54
2016-11-04T05:11:23.704Z,98.45
2016-11-04T05:12:23.713Z,98.35
2016-11-04T05:13:23.734Z,98.35
2016-11-04T05:14:23.741Z,98.26
2016-11-04T05:15:23.762Z,98.26
2016-11-04T05:16:23.767Z,97.88
2016-11-04T05:17:23.790Z,97.6
2016-11-04T05:18:23.811Z,97.6
2016-11-04T05:19:23.813Z,97.5
2016-11-04T05:20:23.828Z,97.5
2016-11-04T05:21:23.859Z,97.5
2016-11-04T05:22:23.864Z,97.41
2016-11-04T05:23:23.876Z,97.5
2016-11-04T05:24:23.895Z,97.41
2016-11-04T05:25:23.915Z,97.22
2016-11-04T05:26:23.926Z,97.02
2016-11-04T05:27:23.934Z,96.93
2016-11-04T05:28:23.957Z,96.93
2016-11-04T05:29:23.970Z,96.93
2016-11-04T05:30:23.983Z,96.83
2016-11-04T05:31:23.999Z,96.55
2016-11-04T05:32:24.016Z,96.26
2016-11-04T05:33:24.033Z,95.79
2016-11-04T05:34:24.037Z,95.31
2016-11-04T05:35:24.053Z,95.12
2016-11-04T05:36:24.073Z,94.84
2016-11-04T05:37:24.089Z,94.65
2016-11-04T05:38:24.104Z,94.56
2016-11-04T05:39:24.118Z,94.56
2016-11-04T05:40:24.215Z,94.46
2016-11-04T05:41:24.149Z,94.46
2016-11-04T05:42:24.161Z,94.27
2016-11-04T05:43:24.169Z,94.08
2016-11-04T05:44:24.186Z,93.99
2016-11-04T05:45:24.207Z,93.51
2016-11-04T05:46:24.215Z,93.04
2016-11-04T05:47:24.230Z,92.75
2016-11-04T05:48:24.253Z,92.75
2016-11-04T05:49:24.263Z,92.75
2016-11-04T05:50:24.283Z,92.75
2016-11-04T05:51:24.285Z,92.85
2016-11-04T05:52:24.320Z,92.66
2016-11-04T05:53:24.323Z,92.47
2016-11-04T05:54:24.406Z,92.37
2016-11-04T05:55:24.384Z,92.28
2016-11-04T05:56:24.363Z,91.89
2016-11-04T05:57:24.381Z,91.33
2016-11-04T05:58:24.396Z,91.04
2016-11-04T05:59:24.414Z,90.95
2016-11-04T06:00:24.428Z,90.95
2016-11-04T06:01:24.435Z,90.95
2016-11-04T06:02:24.448Z,90.76
2016-11-04T06:03:24.464Z,90.57
2016-11-04T06:04:24.484Z,90.09
2016-11-04T06:05:24.565Z,90.09
2016-11-04T06:06:24.518Z,90.19
2016-11-04T06:07:24.524Z,90.19
2016-11-04T06:08:24.537Z,90.28
2016-11-04T06:09:24.555Z,90.38
2016-11-04T06:10:24.577Z,90.47
2016-11-04T06:11:24.584Z,90.38
2016-11-04T06:12:24.593Z,90.38
2016-11-04T06:13:24.610Z,90.28
2016-11-04T06:14:24.634Z,90.09
2016-11-04T06:15:24.655Z,90.09
2016-11-04T06:16:24.661Z,90.19
2016-11-04T06:17:24.684Z,90.38
2016-11-04T06:18:24.693Z,90.57
2016-11-04T06:19:24.704Z,90.66
2016-11-04T06:20:24.724Z,90.85
2016-11-04T06:21:24.734Z,90.85
2016-11-04T06:22:24.852Z,90.76
2016-11-04T06:23:24.764Z,90.95
2016-11-04T06:24:24.784Z,90.95
2016-11-04T06:25:24.797Z,90.85
2016-11-04T06:26:24.811Z,90.95
2016-11-04T06:27:24.823Z,90.85
2016-11-04T06:28:24.840Z,90.85
2016-11-04T06:29:24.847Z,90.76
2016-11-04T06:30:24.871Z,90.57
2016-11-04T06:31:24.884Z,90.47
2016-11-04T06:32:24.895Z,90.57
2016-11-04T06:33:24.905Z,90.47
2016-11-04T06:34:24.933Z,90.47
2016-11-04T06:35:24.943Z,90.66
2016-11-04T06:36:24.956Z,90.76
2016-11-04T06:37:24.977Z,90.76
2016-11-04T06:38:24.989Z,90.66
2016-11-04T06:39:24.997Z,90.66
2016-11-04T06:40:25.015Z,90.85
2016-11-04T06:41:25.026Z,90.85
2016-11-04T06:42:25.048Z,90.85
2016-11-04T06:43:25.055Z,90.66
2016-11-04T06:44:25.078Z,90.66
2016-11-04T06:45:25.088Z,90.57
2016-11-04T06:46:25.101Z,90.19
2016-11-04T06:47:25.151Z,89.9
2016-11-04T06:48:25.166Z,89.9
2016-11-04T06:49:25.148Z,90.09
2016-11-04T06:50:25.165Z,89.9
2016-11-04T06:51:25.179Z,89.72
2016-11-04T06:52:25.199Z,89.81
2016-11-04T06:53:25.208Z,90
2016-11-04T06:54:25.220Z,90.09
2016-11-04T06:55:25.235Z,89.9
2016-11-04T06:56:25.258Z,89.81
2016-11-04T06:57:25.263Z,90
2016-11-04T06:58:25.285Z,89.81
2016-11-04T06:59:25.290Z,89.72
2016-11-04T07:00:25.318Z,89.9
2016-11-04T07:01:25.328Z,89.9
2016-11-04T07:02:25.341Z,89.81
2016-11-04T07:03:25.350Z,89.53
2016-11-04T07:04:25.373Z,89.33
2016-11-04T07:05:25.380Z,89.33
2016-11-04T07:06:25.404Z,89.33
2016-11-04T07:07:25.409Z,89.33
2016-11-04T07:08:25.428Z,89.33
2016-11-04T07:09:25.447Z,89.24
2016-11-04T07:10:25.460Z,89.14
2016-11-04T07:11:25.475Z,88.95
2016-11-04T07:12:25.575Z,89.05
2016-11-04T07:13:25.504Z,88.95
2016-11-04T07:14:25.522Z,88.57
2016-11-04T07:15:25.534Z,88.43
2016-11-04T07:16:25.549Z,88.43
2016-11-04T07:17:25.564Z,88.43
2016-11-04T07:18:25.576Z,88.43
2016-11-04T07:19:25.585Z,87.95
2016-11-04T07:20:25.605Z,87.67
2016-11-04T07:21:25.617Z,87.57
2016-11-04T07:22:25.635Z,87.67
2016-11-04T07:23:25.647Z,87.76
2016-11-04T07:24:25.663Z,87.76
2016-11-04T07:25:25.678Z,87.67
2016-11-04T07:26:25.694Z,87.57
2016-11-04T07:27:25.707Z,87.76
2016-11-04T07:28:25.723Z,87.86
2016-11-04T07:29:25.739Z,87.95
2016-11-04T07:30:25.751Z,87.86
2016-11-04T07:31:25.778Z,87.86
2016-11-04T07:32:25.783Z,87.86
2016-11-04T07:33:25.791Z,87.95
2016-11-04T07:34:25.808Z,87.95
2016-11-04T07:35:25.823Z,87.86
2016-11-04T07:36:25.850Z,87.57
2016-11-04T07:37:25.852Z,87.48
2016-11-04T07:38:25.867Z,87.48
2016-11-04T07:39:25.889Z,87.38
2016-11-04T07:40:25.895Z,87.48
2016-11-04T07:41:25.914Z,87.29
2016-11-04T07:42:25.924Z,87.01
2016-11-04T07:43:25.937Z,87.01
2016-11-04T07:44:25.962Z,86.91
2016-11-04T07:45:25.972Z,86.91
2016-11-04T07:46:25.988Z,87.01
2016-11-04T07:47:25.997Z,87.01
2016-11-04T07:48:26.015Z,87.01
2016-11-04T07:49:26.031Z,86.91
2016-11-04T07:50:26.051Z,86.91
2016-11-04T07:51:26.096Z,86.72
2016-11-04T07:52:26.078Z,86.53
2016-11-04T07:53:26.095Z,86.05
2016-11-04T07:54:26.110Z,85.96
2016-11-04T07:55:26.124Z,85.77
2016-11-04T07:56:26.140Z,85.68
2016-11-04T07:57:26.150Z,85.77
2016-11-04T07:58:26.170Z,85.96
2016-11-04T07:59:26.183Z,86.05
2016-11-04T08:00:26.197Z,85.86
2016-11-04T08:01:26.211Z,85.96
2016-11-04T08:02:26.224Z,86.15
2016-11-04T08:03:26.245Z,86.15
2016-11-04T08:04:26.261Z,86
2016-11-04T08:05:26.274Z,86
2016-11-04T08:06:26.284Z,86.1
2016-11-04T08:07:26.303Z,86.19
2016-11-04T08:08:26.316Z,86.29
2016-11-04T08:09:26.334Z,86.38
2016-11-04T08:10:26.354Z,86.19
2016-11-04T08:11:26.362Z,85.91
2016-11-04T08:12:26.376Z,86
2016-11-04T08:13:26.393Z,85.81
2016-11-04T08:14:26.448Z,85.91
2016-11-04T08:15:26.419Z,85.72
2016-11-04T08:16:26.439Z,85.72
2016-11-04T08:17:26.450Z,85.53
2016-11-04T08:18:26.473Z,85.24
2016-11-04T08:19:26.482Z,85.15
2016-11-04T08:20:26.499Z,85.05
2016-11-04T08:21:26.509Z,85.34
2016-11-04T08:22:26.533Z,85.62
2016-11-04T08:23:26.541Z,85.62
2016-11-04T08:24:26.561Z,85.62
2016-11-04T08:25:26.580Z,85.53
2016-11-04T08:26:26.585Z,85.62
2016-11-04T08:27:26.599Z,85.72
2016-11-04T08:28:26.619Z,85.62
2016-11-04T08:29:26.640Z,85.62
2016-11-04T08:30:26.653Z,85.72
2016-11-04T08:31:26.715Z,85.81
2016-11-04T08:32:26.679Z,85.81
2016-11-04T08:33:26.699Z,85.72
2016-11-04T08:34:26.705Z,85.81
2016-11-04T08:35:26.726Z,86
2016-11-04T08:36:26.743Z,85.91
2016-11-04T08:37:26.757Z,85.81
2016-11-04T08:38:26.768Z,86
2016-11-04T08:39:26.793Z,86
2016-11-04T08:40:26.799Z,85.81
2016-11-04T08:41:26.821Z,85.81
2016-11-04T08:42:26.829Z,85.91
2016-11-04T08:43:26.845Z,86
2016-11-04T08:44:26.863Z,86
2016-11-04T08:45:26.881Z,86.19
2016-11-04T08:46:26.889Z,86.29
2016-11-04T08:47:26.909Z,86.38
2016-11-04T08:48:26.922Z,86.29
2016-11-04T08:49:26.936Z,86.19
2016-11-04T08:50:26.957Z,86.29
2016-11-04T08:51:26.966Z,86.38
2016-11-04T08:52:26.984Z,86.38
2016-11-04T08:53:27.001Z,86.19
2016-11-04T08:54:27.020Z,86.1
2016-11-04T08:55:27.034Z,85.91
2016-11-04T08:56:27.039Z,85.81
2016-11-04T08:57:27.059Z,85.91
2016-11-04T08:58:27.073Z,86
2016-11-04T08:59:27.085Z,86.1
2016-11-04T09:00:27.099Z,86.19
2016-11-04T09:01:27.155Z,86.19
2016-11-04T09:02:27.139Z,86
2016-11-04T09:03:27.147Z,86
2016-11-04T09:04:27.158Z,86.1
2016-11-04T09:05:27.176Z,86.1
2016-11-04T09:06:27.195Z,86
2016-11-04T09:07:27.205Z,85.91
2016-11-04T09:08:27.226Z,85.91
2016-11-04T09:09:27.259Z,85.62
2016-11-04T09:10:27.249Z,85.53
2016-11-04T09:11:27.269Z,85.53
2016-11-04T09:12:27.290Z,85.62
2016-11-04T09:13:27.303Z,85.72
2016-11-04T09:14:27.320Z,85.62
2016-11-04T09:15:27.333Z,85.62
2016-11-04T09:16:27.343Z,85.72
2016-11-04T09:17:27.363Z,85.81
2016-11-04T09:18:27.372Z,85.81
2016-11-04T09:19:27.397Z,85.72
2016-11-04T09:20:27.415Z,85.72
2016-11-04T09:21:27.427Z,85.72
2016-11-04T09:22:27.440Z,85.81
2016-11-04T09:23:27.457Z,85.62
2016-11-04T09:24:27.470Z,85.24
2016-11-04T09:25:27.486Z,84.86
2016-11-04T09:26:27.497Z,85.05
2016-11-04T09:27:27.524Z,85.05
2016-11-04T09:28:27.536Z,85.24
2016-11-04T09:29:27.546Z,85.34
2016-11-04T09:30:27.557Z,85.43
2016-11-04T09:31:27.576Z,85.34
2016-11-04T09:32:27.589Z,85.24
2016-11-04T09:33:27.610Z,85.24
2016-11-04T09:34:27.620Z,85.15
2016-11-04T09:35:27.636Z,85.05
2016-11-04T09:36:27.662Z,84.95
2016-11-04T09:37:27.674Z,84.77
2016-11-04T09:38:27.690Z,84.67
2016-11-04T09:39:27.708Z,84.67
2016-11-04T09:40:27.717Z,84.67
2016-11-04T09:41:27.734Z,84.72
2016-11-04T09:42:27.753Z,84.43
2016-11-04T09:43:27.765Z,84.24
2016-11-04T09:44:27.775Z,84.05
2016-11-04T09:45:27.797Z,84.05
2016-11-04T09:46:27.815Z,83.95
2016-11-04T09:47:27.831Z,83.95
2016-11-04T09:48:27.834Z,84.05
2016-11-04T09:49:27.858Z,83.29
2016-11-04T09:50:27.872Z,83.1
2016-11-04T09:51:27.887Z,83.19
2016-11-04T09:52:27.906Z,83.1
2016-11-04T09:53:27.919Z,82.91
2016-11-04T09:54:27.940Z,82.71
2016-11-04T09:55:27.945Z,82.62
2016-11-04T09:56:27.966Z,82.53
2016-11-04T09:57:27.977Z,82.28
2016-11-04T09:58:27.992Z,82.09
2016-11-04T09:59:28.008Z,81.9
2016-11-04T10:00:28.024Z,81.81
2016-11-04T10:01:28.049Z,81.52
2016-11-04T10:02:28.055Z,81.24
2016-11-04T10:03:28.077Z,81.14
2016-11-04T10:04:28.093Z,80.66
2016-11-04T10:05:28.101Z,80.38
2016-11-04T10:06:28.117Z,80
2016-11-04T10:07:28.143Z,80
2016-11-04T10:08:28.156Z,80
2016-11-04T10:09:28.169Z,80
2016-11-04T10:10:28.186Z,80.13
2016-11-04T10:11:28.199Z,80.04
2016-11-04T10:12:28.218Z,79.85
2016-11-04T10:13:28.234Z,79.94
2016-11-04T10:14:28.253Z,80.04
2016-11-04T10:15:28.260Z,80.04
2016-11-04T10:16:28.283Z,79.75
2016-11-04T10:17:28.302Z,79.66
2016-11-04T10:18:28.338Z,79.28
2016-11-04T10:19:28.327Z,78.8
2016-11-04T10:20:28.347Z,78.9
2016-11-04T10:21:28.354Z,79.19
2016-11-04T10:22:28.379Z,79.38
2016-11-04T10:23:28.392Z,79.38
2016-11-04T10:24:28.404Z,79.38
2016-11-04T10:25:28.429Z,79.38
2016-11-04T10:26:28.481Z,79.66
2016-11-04T10:27:28.461Z,79.85
2016-11-04T10:28:28.480Z,79.66
2016-11-04T10:29:28.497Z,79.57
2016-11-04T10:30:28.506Z,79.47
2016-11-04T10:31:28.518Z,79.57
2016-11-04T10:32:28.537Z,79.66
2016-11-04T10:33:28.557Z,79.75
2016-11-04T10:34:28.571Z,79.75
2016-11-04T10:35:28.587Z,79.57
2016-11-04T10:36:28.603Z,79.47
2016-11-04T10:37:28.621Z,79.09
2016-11-04T10:38:28.640Z,78.8
2016-11-04T10:39:28.659Z,78.8
2016-11-04T10:40:28.669Z,78.9
2016-11-04T10:41:28.678Z,78.71
2016-11-04T10:42:28.710Z,78.33
2016-11-04T10:43:28.718Z,78.33
2016-11-04T10:44:28.729Z,78.33
2016-11-04T10:45:28.747Z,78.46
2016-11-04T10:46:28.769Z,78.65
2016-11-04T10:47:28.785Z,78.65
2016-11-04T10:48:28.803Z,78.56
2016-11-04T10:49:28.812Z,78.56
2016-11-04T10:50:28.827Z,78.56
2016-11-04T10:51:28.852Z,78.37
2016-11-04T10:52:28.863Z,77.98
2016-11-04T10:53:28.884Z,77.8
2016-11-04T10:54:28.898Z,77.89
2016-11-04T10:55:28.915Z,77.7
2016-11-04T10:56:28.936Z,77.7
2016-11-04T10:57:28.948Z,77.51
2016-11-04T10:58:28.962Z,77.32
2016-11-04T10:59:28.985Z,77.32
2016-11-04T11:00:28.998Z,77.32
2016-11-04T11:01:29.012Z,77.13
2016-11-04T11:02:29.033Z,76.94
2016-11-04T11:03:29.043Z,76.94
2016-11-04T11:04:29.070Z,77.13
2016-11-04T11:05:29.092Z,77.22
2016-11-04T11:06:29.094Z,77.32
2016-11-04T11:07:29.125Z,77.22
2016-11-04T11:08:29.135Z,77.32
2016-11-04T11:09:29.146Z,77.13
2016-11-04T11:10:29.167Z,76.84
2016-11-04T11:11:29.193Z,76.65
2016-11-04T11:12:29.225Z,76.65
2016-11-04T11:13:29.216Z,76.56
2016-11-04T11:14:29.228Z,76.75
2016-11-04T11:15:29.256Z,76.84
2016-11-04T11:16:29.298Z,76.94
2016-11-04T11:17:29.286Z,76.94
2016-11-04T11:18:29.294Z,76.46
2016-11-04T11:19:29.316Z,76.46
2016-11-04T11:20:29.329Z,76.65
2016-11-04T11:21:29.347Z,76.75
2016-11-04T11:22:29.415Z,76.84
2016-11-04T11:23:29.377Z,76.65
2016-11-04T11:24:29.402Z,76.46
2016-11-04T11:25:29.419Z,76.46
2016-11-04T11:26:29.428Z,76.27
2016-11-04T11:27:29.455Z,75.79
2016-11-04T11:28:29.462Z,75.51
2016-11-04T11:29:29.487Z,75.42
2016-11-04T11:30:29.500Z,75.23
2016-11-04T11:31:29.833Z,75.13
2016-11-04T11:32:29.529Z,75.23
2016-11-04T11:33:29.546Z,75.51
2016-11-04T11:34:29.560Z,75.6
2016-11-04T11:35:29.580Z,75.6
2016-11-04T11:36:29.596Z,75.7
2016-11-04T11:37:29.620Z,75.74
2016-11-04T11:38:29.632Z,75.64
2016-11-04T11:39:29.654Z,75.64
2016-11-04T11:40:29.660Z,75.64
2016-11-04T11:41:29.685Z,75.45
2016-11-04T11:42:29.698Z,75.55
2016-11-04T11:43:29.720Z,75.55
2016-11-04T11:44:29.732Z,75.26
2016-11-04T11:45:29.743Z,75.45
2016-11-04T11:46:29.760Z,75.55
2016-11-04T11:47:29.788Z,75.74
2016-11-04T11:48:29.792Z,75.45
2016-11-04T11:49:29.816Z,75.55
2016-11-04T11:50:29.823Z,75.55
2016-11-04T11:51:29.857Z,75.45
2016-11-04T11:52:29.902Z,75.55
2016-11-04T11:53:29.890Z,75.64
2016-11-04T11:54:29.896Z,75.55
2016-11-04T11:55:29.914Z,75.45
2016-11-04T11:56:29.932Z,75.36
2016-11-04T11:57:29.962Z,74.98
2016-11-04T11:58:29.976Z,74.88
2016-11-04T11:59:29.990Z,74.98
2016-11-04T12:00:30.001Z,75.16
2016-11-04T12:01:30.017Z,75.45
2016-11-04T12:02:30.022Z,75.74
2016-11-04T12:03:30.050Z,75.84
2016-11-04T12:04:30.068Z,76.12
2016-11-04T12:05:30.092Z,76.31
2016-11-04T12:06:30.100Z,76.4
2016-11-04T12:07:30.110Z,76.31
2016-11-04T12:08:30.131Z,76.31
2016-11-04T12:09:30.165Z,76.5
2016-11-04T12:10:30.161Z,76.5
2016-11-04T12:11:30.188Z,76.4
2016-11-04T12:12:30.200Z,76.5
2016-11-04T12:13:30.218Z,76.4
2016-11-04T12:14:30.229Z,76.31
2016-11-04T12:15:30.254Z,76.03
2016-11-04T12:16:30.272Z,75.84
2016-11-04T12:17:30.305Z,75.84
2016-11-04T12:18:30.304Z,75.84
2016-11-04T12:19:30.321Z,75.84
2016-11-04T12:20:30.326Z,75.74
2016-11-04T12:21:30.355Z,75.55
2016-11-04T12:22:30.368Z,75.36
2016-11-04T12:23:30.393Z,75.45
2016-11-04T12:24:30.400Z,75.55
2016-11-04T12:25:30.422Z,75.74
2016-11-04T12:26:30.432Z,75.64
2016-11-04T12:27:30.468Z,75.84
2016-11-04T12:28:30.466Z,76.12
2016-11-04T12:29:30.490Z,76.31
2016-11-04T12:30:30.505Z,76.31
2016-11-04T12:31:30.517Z,76.5
2016-11-04T12:32:30.540Z,75.74
2016-11-04T12:33:30.564Z,75.36
2016-11-04T12:34:30.579Z,75.55
2016-11-04T12:35:30.597Z,75.79
2016-11-04T12:36:30.609Z,75.89
2016-11-04T12:37:30.630Z,75.42
2016-11-04T12:38:30.639Z,75.36
2016-11-04T12:39:30.665Z,75.36
2016-11-04T12:40:30.669Z,75.64
2016-11-04T12:41:30.701Z,75.74
2016-11-04T12:42:30.703Z,76.03
2016-11-04T12:43:30.731Z,76.31
2016-11-04T12:44:30.737Z,76.5
2016-11-04T12:45:30.766Z,76.69
2016-11-04T12:46:30.775Z,77.07
2016-11-04T12:47:30.798Z,77.17
2016-11-04T12:48:30.807Z,77.17
2016-11-04T12:49:30.818Z,77.45
2016-11-04T12:50:30.842Z,77.74
2016-11-04T12:51:30.856Z,77.55
2016-11-04T12:52:30.874Z,77.51
2016-11-04T12:53:30.894Z,77.51
2016-11-04T12:54:30.904Z,77.32
2016-11-04T12:55:30.932Z,77.51
2016-11-04T12:56:30.945Z,77.8